GB-0540 weather

Ballone Castle Airstrip
Scotland, United Kingdom

Public forecast

Using degrees Celsius for public forecast. Weather courtesy of forecast.io.

METAR (pilot weather report)

Closest report is RAF Kinloss, 13.5 nm (25.1 km) SE. Retrieved 2019/05/22 17:50 UTC (18 minutes ago):

EGQK 221750Z AUTO 29016KT 9999 -RA FEW035/// BKN050/// 11/07 Q1013

TAF (pilot weather forecast)

Forecast is more than 12 hours old.

Closest forecast is RAF Kinloss, 13.5 nm (25.1 km) SE. Retrieved 2011/10/06 06:15 UTC (8 years ago):

TAF TAF EGQK 060601Z 0606/0618 27015G25KT 9999 SCT030 TEMPO 0606/0618 7000 SHRA SCT022 PROB30 TEMPO 0609/0616 27025G32KT 4000 +SHRA SCT014CB BECMG 0614/0617 30020G30KT